createdAt,value
2019-03-17T00:00:47.098Z,3.70
2019-03-17T00:03:19.409Z,3.76
2019-03-17T00:05:56.567Z,3.80
2019-03-17T00:08:27.690Z,3.86
2019-03-17T00:10:58.986Z,3.79
2019-03-17T00:13:37.068Z,3.56
2019-03-17T00:16:07.435Z,3.48
2019-03-17T00:18:47.443Z,3.28
2019-03-17T00:21:24.691Z,3.33
2019-03-17T00:23:58.446Z,3.41
2019-03-17T00:26:30.138Z,3.56
2019-03-17T00:29:01.205Z,3.59
2019-03-17T00:31:32.610Z,3.62
2019-03-17T00:34:04.087Z,3.73
2019-03-17T00:36:41.940Z,3.75
2019-03-17T00:39:12.991Z,3.73
2019-03-17T00:41:44.084Z,3.67
2019-03-17T00:44:15.872Z,3.74
2019-03-17T00:46:47.827Z,3.65
2019-03-17T00:49:32.564Z,3.70
2019-03-17T00:52:04.214Z,3.65
2019-03-17T00:54:35.189Z,3.58
2019-03-17T00:57:10.023Z,3.58
2019-03-17T00:59:46.334Z,3.54
2019-03-17T01:02:23.269Z,3.53
2019-03-17T01:04:57.030Z,3.53
2019-03-17T01:07:28.201Z,3.57
2019-03-17T01:10:05.479Z,3.56
2019-03-17T01:12:38.505Z,3.46
2019-03-17T01:15:10.747Z,3.30
2019-03-17T01:17:43.342Z,3.32
2019-03-17T01:20:15.709Z,3.35
2019-03-17T01:22:47.022Z,3.45
2019-03-17T01:25:25.765Z,3.45
2019-03-17T01:27:57.302Z,3.41
2019-03-17T01:30:28.430Z,3.43
2019-03-17T01:33:45.449Z,3.45
2019-03-17T01:36:16.416Z,3.60
2019-03-17T01:38:47.119Z,3.61
2019-03-17T01:41:18.407Z,3.67
2019-03-17T01:43:53.990Z,3.68
2019-03-17T01:46:25.615Z,3.56
2019-03-17T01:48:59.754Z,3.77
2019-03-17T01:51:34.899Z,3.78
2019-03-17T01:54:07.241Z,3.75
2019-03-17T01:56:40.220Z,3.52
2019-03-17T01:59:13.634Z,3.26
2019-03-17T03:01:53.233Z,2.92
2019-03-17T03:04:25.717Z,2.97
2019-03-17T03:06:56.830Z,2.98
2019-03-17T03:09:28.376Z,2.90
2019-03-17T03:11:59.089Z,2.95
2019-03-17T03:14:30.593Z,2.96
2019-03-17T03:17:06.147Z,2.95
2019-03-17T03:19:36.874Z,3.00
2019-03-17T03:22:08.614Z,3.17
2019-03-17T03:24:39.769Z,3.10
2019-03-17T03:27:11.779Z,3.13
2019-03-17T03:29:43.283Z,3.10
2019-03-17T03:32:14.643Z,2.92
2019-03-17T03:34:46.905Z,2.81
2019-03-17T03:37:29.518Z,2.72
2019-03-17T03:40:01.416Z,2.64
2019-03-17T03:42:32.309Z,2.69
2019-03-17T03:45:03.353Z,2.71
2019-03-17T03:47:34.992Z,2.62
2019-03-17T03:50:06.280Z,2.58
2019-03-17T03:52:38.008Z,2.49
2019-03-17T03:55:09.057Z,2.35
2019-03-17T03:57:40.079Z,2.22
2019-03-17T04:00:12.004Z,2.16
2019-03-17T04:02:43.433Z,2.00
2019-03-17T04:05:14.424Z,1.95
2019-03-17T04:07:45.629Z,2.07
2019-03-17T04:10:16.725Z,2.13
2019-03-17T04:12:48.024Z,1.99
2019-03-17T04:15:19.741Z,1.96
2019-03-17T04:17:51.091Z,1.89
2019-03-17T04:20:22.516Z,1.69
2019-03-17T04:22:53.902Z,1.57
2019-03-17T04:25:25.658Z,1.59
2019-03-17T04:27:56.658Z,1.65
2019-03-17T04:30:28.325Z,1.78
2019-03-17T04:32:58.690Z,1.98
2019-03-17T04:39:25.436Z,1.99
2019-03-17T04:41:57.444Z,1.98
2019-03-17T04:44:29.197Z,1.98
2019-03-17T04:47:01.180Z,1.99
2019-03-17T04:49:33.289Z,1.95
2019-03-17T04:52:04.357Z,1.88
2019-03-17T04:54:35.672Z,2.00
2019-03-17T04:57:06.392Z,2.27
2019-03-17T04:59:37.109Z,2.41
2019-03-17T05:02:08.229Z,2.42
2019-03-17T05:04:39.213Z,2.50
2019-03-17T05:07:10.145Z,2.60
2019-03-17T05:09:41.531Z,2.59
2019-03-17T05:12:12.620Z,2.48
2019-03-17T05:14:44.529Z,2.39
2019-03-17T05:17:16.237Z,2.34
2019-03-17T05:19:47.197Z,2.38
2019-03-17T05:22:18.851Z,2.48
2019-03-17T05:24:50.198Z,2.31
2019-03-17T05:27:21.889Z,2.23
2019-03-17T05:29:53.306Z,2.23
2019-03-17T05:32:24.345Z,2.37
2019-03-17T05:34:55.813Z,2.41
2019-03-17T05:37:27.162Z,2.46
2019-03-17T05:39:58.807Z,2.56
2019-03-17T05:42:30.519Z,3.12
2019-03-17T05:45:01.918Z,3.06
2019-03-17T05:47:33.669Z,3.03
2019-03-17T05:50:05.616Z,3.25
2019-03-17T05:52:37.245Z,3.59
2019-03-17T05:55:08.639Z,5.61
2019-03-17T05:57:40.566Z,6.91
2019-03-17T06:00:13.291Z,7.16
2019-03-17T06:02:44.873Z,6.72
2019-03-17T06:05:16.630Z,6.97
2019-03-17T06:07:47.796Z,7.15
2019-03-17T06:10:19.678Z,7.86
2019-03-17T06:12:51.352Z,8.31
2019-03-17T06:15:22.592Z,8.49
2019-03-17T06:17:54.075Z,8.88
2019-03-17T06:20:24.987Z,8.56
2019-03-17T06:22:56.615Z,8.19
2019-03-17T06:25:28.443Z,8.10
2019-03-17T06:28:00.017Z,8.06
2019-03-17T06:30:31.104Z,8.04
2019-03-17T06:33:03.754Z,7.90
2019-03-17T06:35:34.512Z,7.96
2019-03-17T06:38:05.648Z,7.98
2019-03-17T06:40:37.423Z,8.01
2019-03-17T06:43:09.036Z,8.07
2019-03-17T06:45:40.686Z,8.16
2019-03-17T06:48:11.917Z,8.26
2019-03-17T06:50:43.523Z,8.35
2019-03-17T06:53:15.996Z,8.60
2019-03-17T06:55:47.346Z,9.08
2019-03-17T06:58:18.147Z,9.53
2019-03-17T07:00:49.691Z,9.89
2019-03-17T07:03:21.501Z,10.33
2019-03-17T07:05:51.857Z,10.86
2019-03-17T07:08:22.989Z,11.78
2019-03-17T07:10:59.279Z,13.12
2019-03-17T07:13:30.272Z,14.32
2019-03-17T07:16:01.601Z,15.50
2019-03-17T07:18:33.108Z,16.53
2019-03-17T07:21:04.397Z,16.49
2019-03-17T07:23:36.456Z,16.33
2019-03-17T07:26:07.663Z,15.69
2019-03-17T07:28:39.054Z,14.93
2019-03-17T07:31:10.206Z,15.07
2019-03-17T07:33:41.574Z,15.31
2019-03-17T07:36:12.570Z,15.26
2019-03-17T07:38:43.854Z,16.30
2019-03-17T07:41:15.626Z,16.85
2019-03-17T07:43:46.598Z,16.73
2019-03-17T07:46:17.573Z,16.68
2019-03-17T07:48:48.983Z,15.83
2019-03-17T07:51:20.332Z,16.28
2019-03-17T07:53:52.004Z,17.55
2019-03-17T07:56:23.203Z,18.42
2019-03-17T07:58:55.020Z,19.98
2019-03-17T08:01:25.963Z,18.81
2019-03-17T08:03:56.956Z,18.06
2019-03-17T08:06:28.570Z,18.01
2019-03-17T08:09:00.447Z,18.13
2019-03-17T08:11:31.801Z,17.33
2019-03-17T08:14:02.464Z,16.65
2019-03-17T08:16:33.469Z,17.96
2019-03-17T08:19:04.169Z,19.33
2019-03-17T08:21:36.262Z,18.52
2019-03-17T08:24:06.891Z,17.74
2019-03-17T08:26:37.603Z,17.30
2019-03-17T08:29:09.517Z,19.07
2019-03-17T08:31:42.369Z,17.15
2019-03-17T08:34:13.009Z,17.47
2019-03-17T08:36:44.438Z,17.93
2019-03-17T08:39:15.478Z,17.84
2019-03-17T08:41:46.792Z,17.36
2019-03-17T08:44:22.214Z,16.99
2019-03-17T08:46:54.211Z,17.28
2019-03-17T08:49:25.890Z,18.23
2019-03-17T08:52:09.100Z,17.24
2019-03-17T08:54:39.801Z,15.98
2019-03-17T08:57:11.189Z,16.23
2019-03-17T08:59:59.546Z,15.50
2019-03-17T09:02:30.588Z,15.03
2019-03-17T09:05:01.622Z,14.74
2019-03-17T09:07:42.570Z,15.18
2019-03-17T09:10:14.434Z,15.88
2019-03-17T09:12:45.171Z,16.27
2019-03-17T09:15:17.259Z,16.17
2019-03-17T09:17:48.218Z,16.83
2019-03-17T09:20:19.918Z,16.63
2019-03-17T09:22:50.986Z,17.69
2019-03-17T09:25:22.843Z,18.62
2019-03-17T09:27:54.994Z,18.11
2019-03-17T09:30:28.826Z,19.37
2019-03-17T09:32:59.685Z,19.66
2019-03-17T09:35:31.684Z,20.54
2019-03-17T09:38:03.606Z,19.66
2019-03-17T09:40:41.198Z,20.57
2019-03-17T09:43:13.856Z,19.50
2019-03-17T09:45:45.472Z,18.47
2019-03-17T09:48:16.552Z,18.26
2019-03-17T09:50:46.948Z,17.96
2019-03-17T09:53:17.931Z,17.32
2019-03-17T09:55:49.268Z,16.86
2019-03-17T09:58:20.325Z,16.69
2019-03-17T10:00:51.366Z,16.39
2019-03-17T10:03:25.115Z,16.41
2019-03-17T10:05:56.355Z,15.98
2019-03-17T10:08:28.023Z,15.83
2019-03-17T10:10:58.906Z,16.04
2019-03-17T10:13:40.998Z,16.03
2019-03-17T10:16:12.576Z,15.53
2019-03-17T10:18:44.842Z,15.37
2019-03-17T10:21:18.323Z,15.47
2019-03-17T10:23:52.876Z,15.95
2019-03-17T10:26:25.983Z,15.89
2019-03-17T10:29:00.678Z,16.00
2019-03-17T10:31:58.604Z,15.76
2019-03-17T10:34:38.625Z,15.73
2019-03-17T10:37:22.153Z,15.79
2019-03-17T10:40:13.933Z,15.46
2019-03-17T10:42:45.679Z,15.52
2019-03-17T10:45:16.877Z,15.61
2019-03-17T10:47:48.218Z,15.50
2019-03-17T10:50:19.143Z,15.23
2019-03-17T10:52:50.766Z,15.23
2019-03-17T10:55:22.234Z,15.54
2019-03-17T10:58:01.190Z,16.06
2019-03-17T11:00:32.460Z,16.46
2019-03-17T11:03:04.032Z,16.34
2019-03-17T11:06:15.137Z,16.12
2019-03-17T11:09:25.281Z,15.93
2019-03-17T11:11:51.583Z,16.07
2019-03-17T11:14:22.903Z,16.18
2019-03-17T11:16:55.029Z,16.23
2019-03-17T11:19:26.760Z,16.63
2019-03-17T11:22:03.021Z,17.96
2019-03-17T11:24:34.440Z,18.45
2019-03-17T11:27:05.475Z,18.98
2019-03-17T11:29:36.534Z,18.83
2019-03-17T11:32:07.558Z,19.71
2019-03-17T11:34:42.246Z,20.25
2019-03-17T11:37:13.514Z,18.39
2019-03-17T11:39:45.477Z,18.80
2019-03-17T11:42:16.529Z,18.85
2019-03-17T11:44:49.071Z,18.96
2019-03-17T11:47:20.588Z,18.81
2019-03-17T11:49:51.339Z,18.62
2019-03-17T11:52:22.784Z,18.59
2019-03-17T11:54:54.404Z,17.78
2019-03-17T11:57:25.607Z,17.71
2019-03-17T11:59:56.789Z,17.61
2019-03-17T12:02:33.146Z,18.28
2019-03-17T12:05:06.397Z,17.76
2019-03-17T12:07:41.475Z,17.30
2019-03-17T12:10:22.219Z,17.26
2019-03-17T12:12:52.953Z,16.71
2019-03-17T12:15:29.338Z,16.73
2019-03-17T12:18:00.384Z,16.92
2019-03-17T12:20:34.733Z,16.85
2019-03-17T12:23:06.560Z,17.00
2019-03-17T12:25:37.412Z,17.39
2019-03-17T12:28:09.016Z,17.24
2019-03-17T12:31:17.137Z,17.31
2019-03-17T12:33:50.676Z,17.82
2019-03-17T12:36:21.309Z,18.67
2019-03-17T12:38:52.962Z,18.76
2019-03-17T12:41:24.289Z,18.58
2019-03-17T12:43:55.554Z,18.70
2019-03-17T12:46:40.488Z,18.56
2019-03-17T12:49:10.866Z,18.43
2019-03-17T12:51:42.910Z,18.70
2019-03-17T12:54:14.709Z,19.18
2019-03-17T12:56:45.939Z,19.17
2019-03-17T12:59:16.693Z,18.87
2019-03-17T13:01:54.753Z,19.31
2019-03-17T13:04:26.307Z,19.28
2019-03-17T13:06:58.352Z,18.72
2019-03-17T13:09:35.401Z,18.46
2019-03-17T13:12:08.829Z,17.83
2019-03-17T13:14:46.794Z,18.13
2019-03-17T13:17:22.079Z,18.31
2019-03-17T13:19:59.726Z,18.38
2019-03-17T13:22:31.346Z,18.61
2019-03-17T13:25:02.442Z,17.58
2019-03-17T13:27:37.313Z,18.13
2019-03-17T13:30:11.901Z,17.87
2019-03-17T13:32:43.202Z,17.73
2019-03-17T13:35:15.851Z,17.37
2019-03-17T13:37:47.271Z,18.15
2019-03-17T13:40:28.943Z,17.92
2019-03-17T13:42:51.822Z,17.82
2019-03-17T13:45:22.138Z,17.77
2019-03-17T13:47:59.247Z,17.59
2019-03-17T13:50:30.550Z,17.91
2019-03-17T13:53:00.938Z,17.25
2019-03-17T13:55:38.928Z,17.05
2019-03-17T13:58:11.105Z,16.92
2019-03-17T14:00:45.142Z,17.12
2019-03-17T14:03:16.179Z,16.98
2019-03-17T14:05:47.992Z,16.78
2019-03-17T14:08:19.332Z,16.92
2019-03-17T14:10:50.649Z,16.78
2019-03-17T14:13:28.764Z,16.57
2019-03-17T14:16:00.091Z,16.45
2019-03-17T14:18:31.076Z,16.32
2019-03-17T14:21:06.340Z,16.00
2019-03-17T14:23:41.368Z,16.20
2019-03-17T14:26:25.748Z,16.09
2019-03-17T14:28:56.756Z,15.83
2019-03-17T14:31:33.738Z,15.75
2019-03-17T14:34:06.735Z,15.66
2019-03-17T14:36:38.404Z,15.42
2019-03-17T14:39:28.569Z,15.31
2019-03-17T14:42:00.297Z,15.20
2019-03-17T14:44:30.908Z,15.21
2019-03-17T14:47:08.941Z,15.32
2019-03-17T14:49:40.314Z,15.17
2019-03-17T14:52:16.061Z,15.12
2019-03-17T14:54:46.362Z,15.25
2019-03-17T14:57:17.432Z,15.09
2019-03-17T14:59:56.745Z,15.19
2019-03-17T15:02:27.600Z,14.81
2019-03-17T15:04:58.652Z,14.91
2019-03-17T15:08:03.574Z,14.94
2019-03-17T15:10:34.254Z,14.65
2019-03-17T15:13:05.245Z,14.43
2019-03-17T15:15:49.279Z,14.39
2019-03-17T15:18:20.329Z,14.13
2019-03-17T15:20:51.415Z,14.06
2019-03-17T15:23:23.410Z,13.93
2019-03-17T15:25:55.111Z,13.86
2019-03-17T15:28:26.566Z,13.69
2019-03-17T15:31:11.058Z,13.49
2019-03-17T15:33:31.589Z,13.49
2019-03-17T15:36:02.991Z,13.36
2019-03-17T15:38:33.734Z,13.18
2019-03-17T15:41:17.676Z,12.95
2019-03-17T15:43:39.313Z,12.73
2019-03-17T15:46:10.355Z,12.47
2019-03-17T15:48:42.038Z,12.11
2019-03-17T15:51:29.482Z,12.22
2019-03-17T15:54:00.822Z,11.77
2019-03-17T15:56:32.559Z,11.59
2019-03-17T15:59:03.272Z,11.09
2019-03-17T16:01:33.904Z,10.45
2019-03-17T16:04:05.495Z,10.13
2019-03-17T16:06:37.248Z,9.92
2019-03-17T16:09:09.967Z,9.69
2019-03-17T16:11:41.247Z,8.90
2019-03-17T16:14:12.984Z,8.55
2019-03-17T16:16:44.528Z,8.34
2019-03-17T16:19:19.189Z,8.11
2019-03-17T16:21:49.817Z,7.99
2019-03-17T16:24:21.090Z,7.87
2019-03-17T16:26:52.364Z,7.81
2019-03-17T16:29:24.079Z,7.70
2019-03-17T16:31:55.427Z,7.62
2019-03-17T16:34:26.763Z,7.59
2019-03-17T16:36:58.412Z,7.47
2019-03-17T16:39:41.765Z,7.45
2019-03-17T16:42:12.063Z,7.45
2019-03-17T16:45:02.947Z,7.34
2019-03-17T16:47:40.087Z,7.33
2019-03-17T16:50:24.717Z,7.31
2019-03-17T16:53:17.465Z,7.25
2019-03-17T16:56:02.823Z,7.21
2019-03-17T16:58:39.063Z,7.19
2019-03-17T17:01:10.457Z,7.09
2019-03-17T17:03:41.521Z,6.98
2019-03-17T17:06:31.809Z,6.82
2019-03-17T17:09:12.653Z,6.61
2019-03-17T17:11:55.783Z,6.50
2019-03-17T17:14:38.079Z,6.53
2019-03-17T17:17:29.310Z,6.55
2019-03-17T17:20:00.721Z,6.48
2019-03-17T17:22:32.475Z,6.40
2019-03-17T17:25:03.660Z,6.21
2019-03-17T17:27:35.183Z,6.21
2019-03-17T17:30:06.462Z,6.01
2019-03-17T17:32:37.790Z,5.97
2019-03-17T17:35:08.625Z,5.78
2019-03-17T17:37:39.907Z,5.77
2019-03-17T17:40:12.964Z,5.68
2019-03-17T17:42:43.373Z,5.67
2019-03-17T17:45:15.979Z,5.58
2019-03-17T17:47:47.043Z,5.54
2019-03-17T17:50:18.563Z,5.54
2019-03-17T17:52:48.867Z,5.47
2019-03-17T17:55:19.919Z,5.38
2019-03-17T17:57:53.351Z,5.36
2019-03-17T18:00:25.446Z,5.32
2019-03-17T18:02:58.760Z,5.28
2019-03-17T18:05:29.640Z,5.25
2019-03-17T18:08:06.029Z,5.22
2019-03-17T18:10:39.964Z,5.30
2019-03-17T18:13:11.924Z,5.37
2019-03-17T18:15:42.893Z,5.38
2019-03-17T18:18:13.601Z,5.43
2019-03-17T18:20:45.088Z,5.46
2019-03-17T18:23:18.105Z,5.47
2019-03-17T18:25:57.700Z,5.49
2019-03-17T18:28:28.836Z,5.54
2019-03-17T18:31:01.712Z,5.58
2019-03-17T18:33:42.900Z,5.54
2019-03-17T18:36:31.852Z,5.57
2019-03-17T18:39:03.278Z,5.54
2019-03-17T18:41:58.581Z,5.51
2019-03-17T18:44:29.942Z,5.45
2019-03-17T18:47:00.920Z,5.45
2019-03-17T18:49:32.045Z,5.49
2019-03-17T18:52:03.444Z,5.45
2019-03-17T18:54:34.925Z,5.50
2019-03-17T18:57:06.822Z,5.52
2019-03-17T18:59:38.189Z,5.48
2019-03-17T19:02:18.056Z,5.50
2019-03-17T19:04:49.783Z,5.48
2019-03-17T19:07:21.269Z,5.52
2019-03-17T19:09:55.156Z,5.48
2019-03-17T19:12:26.225Z,5.41
2019-03-17T19:15:01.486Z,5.35
2019-03-17T19:17:32.457Z,5.41
2019-03-17T19:20:04.173Z,5.38
2019-03-17T19:22:34.970Z,5.33
2019-03-17T19:25:11.723Z,5.41
2019-03-17T19:27:46.434Z,5.37
2019-03-17T19:30:19.116Z,5.34
2019-03-17T19:32:54.645Z,5.28
2019-03-17T19:35:35.021Z,5.28
2019-03-17T19:38:09.868Z,5.36
2019-03-17T19:40:44.242Z,5.32
2019-03-17T19:43:28.765Z,5.27
2019-03-17T19:46:00.745Z,5.28
2019-03-17T19:48:33.083Z,5.35
2019-03-17T19:51:08.425Z,5.37
2019-03-17T19:53:40.820Z,5.33
2019-03-17T19:56:12.336Z,5.40
2019-03-17T19:58:46.043Z,5.45
2019-03-17T20:01:27.118Z,5.45
2019-03-17T20:04:07.204Z,5.47
2019-03-17T20:06:38.674Z,5.43
2019-03-17T20:09:26.765Z,5.41
2019-03-17T20:12:00.078Z,5.50
2019-03-17T20:14:32.872Z,5.49
2019-03-17T20:17:05.254Z,5.61
2019-03-17T20:19:38.091Z,5.47
2019-03-17T20:22:13.645Z,5.48
2019-03-17T20:24:47.855Z,5.51
2019-03-17T20:27:22.047Z,5.56
2019-03-17T20:29:53.689Z,5.57
2019-03-17T20:32:28.441Z,5.63
2019-03-17T20:35:03.710Z,5.56
2019-03-17T20:37:35.317Z,5.58
2019-03-17T20:40:14.510Z,5.50
2019-03-17T20:42:55.170Z,5.51
2019-03-17T20:45:28.985Z,5.52
2019-03-17T20:48:01.465Z,5.54
2019-03-17T20:50:48.096Z,5.58
2019-03-17T20:53:20.805Z,5.58
2019-03-17T20:55:52.296Z,5.58
2019-03-17T20:58:30.410Z,5.55
2019-03-17T21:01:01.661Z,5.52
2019-03-17T21:03:34.099Z,5.58
2019-03-17T21:06:15.639Z,5.66
2019-03-17T21:08:51.150Z,5.59
2019-03-17T21:11:23.565Z,5.56
2019-03-17T21:13:58.539Z,5.60
2019-03-17T21:16:32.814Z,5.56
2019-03-17T21:19:03.932Z,5.68
2019-03-17T21:21:35.721Z,5.62
2019-03-17T21:24:06.064Z,5.57
2019-03-17T21:26:37.856Z,5.60
2019-03-17T21:29:09.504Z,5.70
2019-03-17T21:31:40.965Z,5.71
2019-03-17T21:34:14.203Z,4.80
2019-03-17T21:36:47.958Z,4.37
2019-03-17T21:39:19.649Z,3.87
2019-03-17T21:41:55.334Z,3.84
2019-03-17T21:44:32.528Z,3.84
2019-03-17T21:47:03.574Z,3.85
2019-03-17T21:49:34.745Z,3.87
2019-03-17T21:52:18.428Z,3.87
2019-03-17T21:54:49.686Z,3.95
2019-03-17T21:57:23.759Z,4.01
2019-03-17T21:59:56.037Z,4.03
2019-03-17T22:02:28.585Z,4.06
2019-03-17T22:04:59.722Z,4.10
2019-03-17T22:07:31.848Z,4.10
2019-03-17T22:10:03.587Z,4.07
2019-03-17T22:12:36.974Z,4.09
2019-03-17T22:15:10.059Z,4.06
2019-03-17T22:17:41.268Z,4.08
2019-03-17T22:20:18.439Z,4.06
2019-03-17T22:22:51.668Z,4.03
2019-03-17T22:25:24.528Z,4.01
2019-03-17T22:28:07.767Z,4.10
2019-03-17T22:30:32.282Z,4.07
2019-03-17T22:33:04.819Z,4.05
2019-03-17T22:35:36.091Z,4.06
2019-03-17T22:38:09.841Z,4.11
2019-03-17T22:40:43.971Z,4.33
2019-03-17T22:43:16.044Z,4.59
2019-03-17T22:45:47.687Z,4.64
2019-03-17T22:48:18.786Z,4.76
2019-03-17T22:50:52.483Z,4.93
2019-03-17T22:53:23.575Z,4.92
2019-03-17T22:55:54.482Z,4.79
2019-03-17T22:58:27.186Z,4.78
2019-03-17T23:01:05.978Z,4.82
2019-03-17T23:03:57.825Z,4.73
2019-03-17T23:06:31.262Z,4.69
2019-03-17T23:09:03.035Z,4.75
2019-03-17T23:11:34.287Z,4.80
2019-03-17T23:14:05.743Z,4.80
2019-03-17T23:16:43.511Z,4.75
2019-03-17T23:19:15.459Z,4.90
2019-03-17T23:21:47.250Z,4.99
2019-03-17T23:24:32.109Z,4.99
2019-03-17T23:27:03.545Z,5.03
2019-03-17T23:29:35.047Z,5.01
2019-03-17T23:32:06.528Z,5.05
2019-03-17T23:34:38.257Z,5.02
2019-03-17T23:37:09.695Z,5.01
2019-03-17T23:39:40.674Z,4.97
2019-03-17T23:42:16.934Z,4.96
2019-03-17T23:44:52.414Z,4.85
2019-03-17T23:47:24.098Z,4.75
2019-03-17T23:49:55.425Z,4.69
2019-03-17T23:52:27.744Z,4.64
2019-03-17T23:54:59.327Z,4.69
2019-03-17T23:57:33.331Z,4.65
